Time;durP1;ratioP1;P1;durP2;ratioP2;P2;SDS_P1;SDS_P2;PMS_P1;PMS_P2;Temp;Humidity;BMP_temperature;BMP_pressure;BME280_temperature;BME280_humidity;BME280_pressure;Samples;Min_cycle;Max_cycle;Signal;HPM_P1;HPM_P2
2023/07/31 00:01:12;;;;;;;2.50;1.20;;;;;;;13.61;96.24;97315.06;5062969;28;20126;-56
2023/07/31 00:03:39;;;;;;;3.15;1.25;;;;;;;13.55;96.58;97318.03;5063159;28;20044;-56
2023/07/31 00:06:06;;;;;;;4.57;1.77;;;;;;;13.49;97.48;97314.53;5066875;28;20040;-55
2023/07/31 00:08:32;;;;;;;5.95;1.63;;;;;;;13.50;97.90;97318.88;5062857;28;20056;-53
2023/07/31 00:10:59;;;;;;;4.25;1.42;;;;;;;13.58;97.44;97323.78;5063747;28;20631;-55
2023/07/31 00:13:25;;;;;;;6.03;1.58;;;;;;;13.62;97.78;97308.53;5062321;28;20048;-55
2023/07/31 00:15:52;;;;;;;4.88;1.65;;;;;;;13.44;98.72;97311.75;5062112;28;20051;-55
2023/07/31 00:18:18;;;;;;;2.45;1.20;;;;;;;13.20;100.00;97313.09;5063083;28;20127;-54
2023/07/31 00:20:45;;;;;;;5.97;1.60;;;;;;;13.25;100.00;97315.84;5062913;28;20050;-56
2023/07/31 00:23:11;;;;;;;3.42;1.58;;;;;;;13.45;97.39;97316.94;5063984;28;20068;-56
2023/07/31 00:25:38;;;;;;;6.38;2.13;;;;;;;13.39;97.64;97309.88;5060147;28;20044;-55
2023/07/31 00:28:05;;;;;;;3.88;1.40;;;;;;;13.40;96.74;97311.50;5063184;28;20051;-55
2023/07/31 00:30:31;;;;;;;3.35;1.60;;;;;;;13.54;94.76;97317.25;5061506;28;20411;-56
2023/07/31 00:33:00;;;;;;;5.35;1.75;;;;;;;13.70;93.38;97320.75;5062375;28;20120;-55
2023/07/31 00:35:26;;;;;;;10.25;2.25;;;;;;;13.76;92.79;97327.84;5061288;28;20507;-55
2023/07/31 00:37:53;;;;;;;4.38;1.75;;;;;;;13.72;92.60;97326.75;5062460;28;20049;-55
2023/07/31 00:40:19;;;;;;;4.10;1.50;;;;;;;13.34;95.65;97324.28;5064257;28;20044;-54
2023/07/31 00:42:46;;;;;;;3.55;1.42;;;;;;;13.33;96.29;97328.09;5062304;28;20040;-56
2023/07/31 00:45:13;;;;;;;7.43;1.52;;;;;;;13.07;98.48;97317.19;5060959;28;20126;-58
2023/07/31 00:47:40;;;;;;;5.40;1.30;;;;;;;13.17;98.08;97310.13;5063039;28;20046;-56
2023/07/31 00:50:08;;;;;;;3.97;1.60;;;;;;;13.27;97.40;97321.81;5061958;28;20511;-56
2023/07/31 00:52:35;;;;;;;4.57;1.70;;;;;;;13.31;96.96;97313.13;5061291;28;20040;-56
2023/07/31 00:55:03;;;;;;;4.57;1.20;;;;;;;13.23;97.75;97317.22;5062739;28;20045;-56
2023/07/31 00:57:31;;;;;;;4.22;1.33;;;;;;;13.10;98.44;97311.22;5060443;28;20044;-56
2023/07/31 00:59:58;;;;;;;3.97;1.45;;;;;;;13.04;99.02;97312.28;5062572;28;20480;-57
2023/07/31 01:02:25;;;;;;;4.70;1.63;;;;;;;12.91;100.00;97316.34;5062221;28;20060;-56
2023/07/31 01:04:52;;;;;;;6.63;1.70;;;;;;;12.96;100.00;97313.63;5060821;28;20470;-56
2023/07/31 01:07:32;;;;;;;5.28;1.73;;;;;;;13.03;100.00;97304.41;5062502;28;20139;-54
2023/07/31 01:10:08;;;;;;;4.32;1.55;;;;;;;13.13;99.32;97297.06;5049802;28;20439;-56
2023/07/31 01:12:34;;;;;;;3.78;1.60;;;;;;;13.23;97.67;97306.34;5059855;28;20085;-56
2023/07/31 01:15:06;;;;;;;5.90;1.55;;;;;;;13.32;97.07;97293.84;5061406;28;20052;-56
2023/07/31 01:17:33;;;;;;;4.68;1.48;;;;;;;13.42;95.97;97290.31;5061323;28;20041;-53
2023/07/31 01:20:03;;;;;;;3.47;1.50;;;;;;;13.53;94.88;97280.25;5061582;28;20102;-55
2023/07/31 01:22:54;;;;;;;4.47;1.45;;;;;;;13.76;93.32;97280.75;5061587;28;20037;-54
2023/07/31 01:25:48;;;;;;;7.38;1.60;;;;;;;13.83;93.05;97284.03;5061309;28;20059;-56
2023/07/31 01:28:20;;;;;;;3.97;1.50;;;;;;;13.90;92.70;97284.53;5058209;28;20049;-53
2023/07/31 01:30:48;;;;;;;3.55;1.45;;;;;;;14.03;90.60;97288.59;5060042;28;20072;-53
2023/07/31 01:33:18;;;;;;;6.10;1.58;;;;;;;14.18;89.01;97279.56;5060725;28;20111;-54
2023/07/31 01:35:48;;;;;;;5.65;1.70;;;;;;;14.34;87.94;97281.41;5060805;28;20098;-54
2023/07/31 01:38:14;;;;;;;5.03;1.75;;;;;;;14.33;88.07;97280.59;5060790;28;20157;-55
2023/07/31 01:40:42;;;;;;;2.47;1.27;;;;;;;14.34;87.75;97284.94;5060850;28;20059;-56
2023/07/31 01:43:09;;;;;;;4.38;2.08;;;;;;;14.15;88.71;97274.66;5063032;28;20043;-55
2023/07/31 01:45:35;;;;;;;4.22;1.23;;;;;;;14.03;89.90;97277.69;5061172;28;20048;-55
2023/07/31 01:48:02;;;;;;;4.18;1.33;;;;;;;14.10;89.31;97274.69;5062710;28;20048;-55
2023/07/31 01:50:28;;;;;;;5.57;1.40;;;;;;;14.18;88.87;97267.84;5060290;28;20541;-55
2023/07/31 01:52:55;;;;;;;3.08;1.30;;;;;;;14.12;88.95;97275.22;5059082;28;20487;-56
2023/07/31 01:55:21;;;;;;;6.10;1.65;;;;;;;14.11;88.51;97262.69;5061244;28;20044;-56
2023/07/31 01:57:48;;;;;;;2.88;1.20;;;;;;;14.07;89.05;97263.53;5061127;28;20040;-56
2023/07/31 02:00:15;;;;;;;7.18;1.63;;;;;;;14.05;88.98;97258.38;5058852;28;20131;-54
2023/07/31 02:02:43;;;;;;;3.53;1.52;;;;;;;13.98;89.10;97260.56;5058598;28;20039;-55
2023/07/31 02:05:09;;;;;;;4.95;1.60;;;;;;;13.90;89.51;97257.31;5059086;28;20056;-55
2023/07/31 02:07:36;;;;;;;5.82;1.50;;;;;;;13.79;90.95;97255.72;5060543;28;20086;-54
2023/07/31 02:10:03;;;;;;;3.17;1.33;;;;;;;13.74;91.12;97255.72;5062104;28;20036;-54
2023/07/31 02:12:33;;;;;;;3.42;1.40;;;;;;;13.81;90.48;97256.25;5058201;28;20128;-56
2023/07/31 02:15:01;;;;;;;6.35;1.33;;;;;;;13.91;89.13;97249.97;5061652;28;20450;-55
2023/07/31 02:17:28;;;;;;;4.22;1.38;;;;;;;13.95;88.90;97242.88;5061743;28;20063;-56
2023/07/31 02:19:55;;;;;;;6.25;1.40;;;;;;;13.91;88.89;97241.81;5061920;28;20052;-55
2023/07/31 02:22:21;;;;;;;3.33;1.33;;;;;;;13.90;88.29;97238.25;5061589;28;20029;-55
2023/07/31 02:24:48;;;;;;;2.90;1.30;;;;;;;13.95;87.89;97234.72;5059275;28;20036;-55
2023/07/31 02:27:15;;;;;;;4.75;1.40;;;;;;;14.07;86.66;97226.22;5061432;28;20494;-55
2023/07/31 02:29:41;;;;;;;5.68;1.52;;;;;;;14.10;86.39;97217.50;5061773;28;20044;-55
2023/07/31 02:32:08;;;;;;;5.57;1.50;;;;;;;13.55;91.31;97222.84;5060568;28;20037;-53
2023/07/31 02:34:35;;;;;;;3.35;1.45;;;;;;;13.42;91.82;97216.88;5060958;28;20173;-55
2023/07/31 02:37:01;;;;;;;3.40;1.45;;;;;;;13.48;91.88;97217.69;5061865;28;20044;-54
2023/07/31 02:39:28;;;;;;;4.20;1.35;;;;;;;13.30;92.87;97219.84;5061385;28;20049;-54
2023/07/31 02:41:54;;;;;;;4.65;1.45;;;;;;;13.35;92.55;97222.56;5066375;28;20435;-55
2023/07/31 02:44:22;;;;;;;2.83;1.30;;;;;;;13.50;91.20;97212.81;5063676;28;20132;-55
2023/07/31 02:46:49;;;;;;;5.03;1.20;;;;;;;13.44;92.26;97216.56;5065239;28;20047;-55
2023/07/31 02:49:15;;;;;;;4.32;1.48;;;;;;;13.44;91.82;97216.56;5062437;28;20063;-54
2023/07/31 02:51:42;;;;;;;3.53;1.40;;;;;;;13.35;92.20;97200.81;5062669;28;20041;-56
2023/07/31 02:54:08;;;;;;;3.70;1.50;;;;;;;13.15;94.87;97209.81;5062985;28;20048;-56
2023/07/31 02:56:35;;;;;;;4.38;1.65;;;;;;;12.96;95.48;97210.38;5062213;28;20070;-55
2023/07/31 02:59:02;;;;;;;3.58;1.52;;;;;;;13.16;93.61;97216.06;5064178;28;20463;-55
2023/07/31 03:01:28;;;;;;;4.47;1.48;;;;;;;13.34;91.44;97223.66;5063151;28;20047;-56
2023/07/31 03:03:55;;;;;;;6.53;1.40;;;;;;;13.44;91.24;97222.84;5065145;28;20043;-54
2023/07/31 03:06:22;;;;;;;4.93;1.95;;;;;;;13.61;89.87;97233.47;5065210;28;20037;-56
2023/07/31 03:08:48;;;;;;;5.65;1.73;;;;;;;13.63;89.68;97225.81;5060834;28;20045;-56
2023/07/31 03:11:15;;;;;;;4.13;1.42;;;;;;;13.47;91.20;97224.19;5063024;28;20250;-56
2023/07/31 03:13:42;;;;;;;3.58;1.27;;;;;;;13.37;92.30;97216.84;5063887;28;20049;-56
2023/07/31 03:16:08;;;;;;;4.65;1.48;;;;;;;13.36;92.56;97218.78;5063618;28;20044;-55
2023/07/31 03:18:35;;;;;;;4.75;2.00;;;;;;;13.33;92.42;97216.59;5062588;28;20059;-55
2023/07/31 03:21:02;;;;;;;5.65;1.80;;;;;;;13.36;92.06;97216.06;5063855;28;20045;-55
2023/07/31 03:23:28;;;;;;;6.38;1.65;;;;;;;13.38;92.00;97222.03;5062866;28;20139;-55
2023/07/31 03:26:00;;;;;;;3.25;1.33;;;;;;;13.46;nan;97220.66;5063474;28;20037;-56
2023/07/31 03:28:30;;;;;;;2.80;1.23;;;;;;;13.45;92.39;97223.66;5063577;28;20041;-54
2023/07/31 03:30:56;;;;;;;3.22;1.58;;;;;;;13.43;92.10;97223.94;5063666;28;20059;-55
2023/07/31 03:33:23;;;;;;;3.65;1.60;;;;;;;13.32;92.99;97216.88;5062461;28;20032;-55
2023/07/31 03:35:50;;;;;;;4.43;1.83;;;;;;;13.25;93.75;97220.69;5063236;28;22283;-55
2023/07/31 03:38:16;;;;;;;3.72;1.55;;;;;;;13.24;93.28;97227.19;5065386;28;20055;-56
2023/07/31 03:40:43;;;;;;;5.88;2.03;;;;;;;13.17;94.21;97220.41;5063412;28;20050;-55
2023/07/31 03:43:10;;;;;;;4.45;1.70;;;;;;;13.12;94.41;97232.91;5067049;28;20119;-56
2023/07/31 03:45:38;;;;;;;4.55;1.52;;;;;;;13.19;93.81;97226.41;5061256;28;20058;-56
2023/07/31 03:48:05;;;;;;;6.22;1.60;;;;;;;13.20;94.07;97230.75;5064012;28;20123;-54
2023/07/31 03:50:32;;;;;;;5.80;1.95;;;;;;;13.22;93.83;97221.22;5061514;28;20068;-56
2023/07/31 03:53:00;;;;;;;4.47;1.42;;;;;;;13.27;93.38;97212.25;5061632;28;20039;-53
2023/07/31 03:55:26;;;;;;;2.55;1.38;;;;;;;13.34;93.12;97226.38;5061843;28;20055;-56
2023/07/31 03:57:53;;;;;;;4.63;1.67;;;;;;;13.32;93.14;97216.88;5060599;28;20675;-54
2023/07/31 04:00:20;;;;;;;6.65;1.83;;;;;;;13.39;93.02;97225.56;5061682;28;20554;-55
2023/07/31 04:02:47;;;;;;;7.38;2.00;;;;;;;13.44;92.05;97214.69;5060504;28;20043;-54
2023/07/31 04:05:13;;;;;;;4.70;1.70;;;;;;;13.45;92.08;97221.75;5061760;28;20044;-54
2023/07/31 04:07:40;;;;;;;5.65;1.70;;;;;;;13.46;92.25;97215.22;5061244;28;20052;-56
2023/07/31 04:10:07;;;;;;;4.45;1.55;;;;;;;13.56;91.57;97214.41;5062463;28;20043;-56
2023/07/31 04:12:36;;;;;;;6.80;1.52;;;;;;;13.61;91.39;97217.13;5061107;28;20470;-56
2023/07/31 04:15:03;;;;;;;5.30;1.75;;;;;;;13.71;90.33;97224.44;5060614;28;20132;-56
2023/07/31 04:17:29;;;;;;;3.58;1.27;;;;;;;13.86;89.05;97217.34;5061234;28;20054;-54
2023/07/31 04:19:56;;;;;;;4.95;1.48;;;;;;;13.90;88.78;97213.75;5062026;28;20110;-56
2023/07/31 04:22:22;;;;;;;4.22;1.85;;;;;;;13.86;88.78;97215.41;5060389;28;20055;-55
2023/07/31 04:24:49;;;;;;;4.95;1.60;;;;;;;13.81;89.80;97218.16;5060499;28;20044;-56
2023/07/31 04:27:15;;;;;;;8.98;2.00;;;;;;;13.78;89.73;97214.09;5061351;28;20698;-56
2023/07/31 04:29:44;;;;;;;3.95;1.65;;;;;;;13.87;89.07;97216.25;5060270;28;20044;-55
2023/07/31 04:32:10;;;;;;;5.03;1.45;;;;;;;13.94;89.19;97211.31;5061428;28;20044;-55
2023/07/31 04:34:37;;;;;;;5.88;1.88;;;;;;;13.94;89.06;97210.50;5060148;28;20041;-56
2023/07/31 04:37:04;;;;;;;5.60;1.42;;;;;;;13.96;88.34;97214.56;5061662;28;20114;-55
2023/07/31 04:39:30;;;;;;;4.65;1.52;;;;;;;14.05;87.72;97215.63;5060705;28;20048;-53
2023/07/31 04:41:56;;;;;;;5.80;1.38;;;;;;;14.02;88.42;97218.09;5059867;28;20048;-56
2023/07/31 04:44:23;;;;;;;4.00;1.30;;;;;;;13.93;88.58;97219.75;5060671;28;20048;-55
2023/07/31 04:46:49;;;;;;;4.75;1.55;;;;;;;13.99;88.19;97216.75;5060372;28;20090;-56
2023/07/31 04:49:16;;;;;;;5.45;1.60;;;;;;;14.15;87.41;97213.94;5060516;28;20431;-54
2023/07/31 04:51:43;;;;;;;4.13;1.77;;;;;;;14.12;87.68;97215.31;5061096;28;20040;-55
2023/07/31 04:54:09;;;;;;;4.90;1.65;;;;;;;14.23;86.93;97212.56;5061067;28;20044;-55
2023/07/31 04:56:36;;;;;;;6.25;1.50;;;;;;;14.35;86.38;97209.50;5059384;28;20052;-54
2023/07/31 04:59:03;;;;;;;3.95;1.60;;;;;;;14.41;86.27;97213.84;5060415;28;20060;-56
2023/07/31 05:01:29;;;;;;;3.95;1.27;;;;;;;14.40;86.33;97210.28;5060385;28;20637;-56
2023/07/31 05:03:56;;;;;;;4.40;1.35;;;;;;;14.40;86.52;97210.28;5060316;28;20044;-56
2023/07/31 05:06:22;;;;;;;4.40;1.65;;;;;;;14.43;86.12;97206.19;5060727;28;20135;-56
2023/07/31 05:08:49;;;;;;;3.35;1.48;;;;;;;14.49;85.90;97207.75;5059804;28;20052;-56
2023/07/31 05:11:15;;;;;;;4.47;1.30;;;;;;;14.54;85.13;97199.59;5059358;28;20048;-56
2023/07/31 05:13:42;;;;;;;5.45;1.67;;;;;;;14.49;85.94;97206.97;5058181;28;20051;-56
2023/07/31 05:16:09;;;;;;;3.30;1.25;;;;;;;14.60;85.58;97205.81;5060764;28;20032;-56
2023/07/31 05:18:35;;;;;;;5.18;1.85;;;;;;;14.54;85.89;97205.03;5062406;28;20055;-56
2023/07/31 05:21:02;;;;;;;4.45;1.30;;;;;;;14.52;85.72;97206.41;5060552;28;20049;-56
2023/07/31 05:23:29;;;;;;;3.15;1.30;;;;;;;14.56;85.61;97210.22;5060904;28;20060;-56
2023/07/31 05:25:55;;;;;;;5.10;1.65;;;;;;;14.45;86.18;97206.72;5060109;28;20448;-56
2023/07/31 05:28:22;;;;;;;5.90;1.60;;;;;;;14.43;86.55;97209.72;5061031;28;20463;-54
2023/07/31 05:30:48;;;;;;;4.40;1.80;;;;;;;14.48;86.78;97214.31;5057892;28;20041;-55
2023/07/31 05:33:15;;;;;;;4.90;1.83;;;;;;;14.37;87.83;97204.59;5061185;28;20037;-56
2023/07/31 05:35:42;;;;;;;3.72;1.38;;;;;;;14.37;87.54;97208.13;5058255;28;20052;-56
2023/07/31 05:38:08;;;;;;;5.53;1.60;;;;;;;14.43;87.50;97198.00;5064391;28;20155;-55
2023/07/31 05:40:35;;;;;;;6.10;2.20;;;;;;;14.60;86.02;97197.66;5059060;28;20055;-56
2023/07/31 05:43:01;;;;;;;4.45;1.75;;;;;;;14.69;85.59;97200.56;5063322;28;20045;-56
2023/07/31 05:45:28;;;;;;;4.22;1.50;;;;;;;14.74;85.13;97194.28;5059941;28;20052;-56
2023/07/31 05:47:54;;;;;;;5.38;1.45;;;;;;;14.79;84.55;97194.28;5059821;28;20059;-55
2023/07/31 05:50:21;;;;;;;5.05;1.70;;;;;;;14.88;84.31;97200.75;5059521;28;20102;-54
2023/07/31 05:52:48;;;;;;;6.43;1.88;;;;;;;14.95;83.86;97197.69;5059864;28;20052;-55
2023/07/31 05:55:14;;;;;;;4.80;1.40;;;;;;;15.01;83.25;97198.47;5059878;28;20408;-53
2023/07/31 05:57:41;;;;;;;6.07;1.55;;;;;;;15.11;83.21;97198.38;5059829;28;20436;-55
2023/07/31 06:00:08;;;;;;;4.68;1.50;;;;;;;15.27;82.35;97203.69;5060336;28;20044;-55
2023/07/31 06:02:36;;;;;;;5.00;1.20;;;;;;;15.44;81.16;97201.34;5057725;28;20037;-56
2023/07/31 06:05:05;;;;;;;4.55;1.40;;;;;;;15.63;80.60;97199.81;5060215;28;20044;-54
2023/07/31 06:07:32;;;;;;;4.20;1.45;;;;;;;15.79;79.99;97197.72;5058945;28;20051;-56
2023/07/31 06:10:04;;;;;;;4.88;1.65;;;;;;;15.88;78.66;97192.44;5059916;28;20044;-57
2023/07/31 06:12:32;;;;;;;3.80;1.48;;;;;;;16.03;78.92;97191.47;5060807;28;20072;-56
2023/07/31 06:14:59;;;;;;;4.60;1.50;;;;;;;16.20;78.23;97194.53;5061569;28;20060;-55
2023/07/31 06:17:26;;;;;;;7.70;1.48;;;;;;;16.37;76.23;97193.22;5063989;28;20107;-56
2023/07/31 06:19:53;;;;;;;4.03;1.52;;;;;;;16.43;76.61;97192.03;5063075;28;20130;-56
2023/07/31 06:22:19;;;;;;;4.82;2.08;;;;;;;16.48;75.66;97188.41;5063246;28;20040;-56
2023/07/31 06:24:46;;;;;;;3.15;1.23;;;;;;;16.52;76.17;97192.97;5063575;28;20424;-56
2023/07/31 06:27:13;;;;;;;3.78;1.38;;;;;;;16.67;75.27;97190.31;5061271;28;20048;-56
2023/07/31 06:29:39;;;;;;;3.88;1.25;;;;;;;16.76;74.47;97192.09;5062181;28;20052;-56
2023/07/31 06:32:07;;;;;;;5.07;1.50;;;;;;;16.79;74.40;97182.47;5062466;28;20729;-56
2023/07/31 06:34:33;;;;;;;3.85;1.30;;;;;;;16.85;74.07;97194.16;5061291;28;20622;-56
2023/07/31 06:37:00;;;;;;;5.53;1.85;;;;;;;16.85;73.21;97192.22;5062488;28;20841;-56
2023/07/31 06:39:26;;;;;;;4.25;1.48;;;;;;;16.94;73.29;97191.53;5063406;28;20064;-56
2023/07/31 06:41:53;;;;;;;5.63;1.63;;;;;;;16.86;72.55;97190.31;5062992;28;20055;-55
2023/07/31 06:44:19;;;;;;;4.22;1.52;;;;;;;16.90;72.79;97192.16;5064752;28;20131;-56
2023/07/31 06:46:46;;;;;;;4.30;1.27;;;;;;;16.89;74.30;97203.38;5063010;28;20047;-56
2023/07/31 06:49:14;;;;;;;5.53;1.42;;;;;;;16.90;73.01;97197.63;5064384;28;20047;-56
2023/07/31 06:51:43;;;;;;;3.90;1.42;;;;;;;17.02;72.15;97199.88;5062395;28;20662;-55
2023/07/31 06:54:11;;;;;;;4.18;1.38;;;;;;;17.13;72.58;97200.56;5063717;28;20044;-55
2023/07/31 06:56:37;;;;;;;6.60;1.58;;;;;;;17.46;70.49;97193.44;5061982;28;20060;-54
2023/07/31 06:59:07;;;;;;;3.38;1.40;;;;;;;17.46;71.17;97194.25;5063291;28;20055;-56
2023/07/31 07:01:33;;;;;;;5.63;1.52;;;;;;;17.64;70.09;97189.81;5065858;28;20040;-52
2023/07/31 07:04:00;;;;;;;3.80;1.55;;;;;;;17.60;69.44;97188.78;5062884;28;20704;-56
2023/07/31 07:06:27;;;;;;;4.22;1.92;;;;;;;17.61;69.41;97184.94;5062558;28;20716;-56
2023/07/31 07:08:53;;;;;;;5.20;1.63;;;;;;;17.63;70.25;97190.94;5063275;28;20058;-56
2023/07/31 07:11:19;;;;;;;3.95;1.30;;;;;;;17.61;69.99;97181.41;5066929;28;20055;-56
2023/07/31 07:13:46;;;;;;;5.65;1.60;;;;;;;17.64;70.42;97186.25;5063429;28;20049;-50
2023/07/31 07:16:13;;;;;;;4.10;1.60;;;;;;;17.54;70.65;97181.78;5063373;28;20052;-44
2023/07/31 07:18:39;;;;;;;5.68;1.38;;;;;;;17.67;71.11;97175.53;5059525;28;20037;-47
2023/07/31 07:21:19;;;;;;;7.40;1.50;;;;;;;17.76;68.53;97180.31;5059508;28;20407;-55
2023/07/31 07:23:46;;;;;;;4.97;1.50;;;;;;;17.78;69.11;97167.94;5063206;28;20040;-54
2023/07/31 07:26:13;;;;;;;6.90;2.00;;;;;;;17.85;70.05;97174.91;5062586;28;20048;-53
2023/07/31 07:28:39;;;;;;;4.13;1.50;;;;;;;18.02;67.91;97171.56;5062186;28;20049;-54
2023/07/31 07:31:06;;;;;;;4.18;1.55;;;;;;;17.66;68.25;97171.16;5062335;28;20037;-55
2023/07/31 07:33:35;;;;;;;3.60;1.48;;;;;;;17.71;68.60;97167.50;5062448;28;20075;-56
2023/07/31 07:36:02;;;;;;;3.85;1.42;;;;;;;17.79;67.91;97166.81;5062540;28;20044;-46
2023/07/31 07:38:28;;;;;;;4.68;1.48;;;;;;;17.92;67.30;97165.16;5062939;28;20078;-45
2023/07/31 07:40:55;;;;;;;3.30;1.38;;;;;;;17.94;67.34;97167.59;5062268;28;20032;-46
2023/07/31 07:43:21;;;;;;;5.40;1.60;;;;;;;18.27;67.41;97167.50;5062676;28;20076;-45
2023/07/31 07:45:48;;;;;;;3.70;1.30;;;;;;;18.41;67.08;97161.97;5062008;28;20056;-47
2023/07/31 07:48:17;;;;;;;3.17;1.30;;;;;;;18.60;67.34;97161.00;5063270;28;20041;-45
2023/07/31 07:50:43;;;;;;;4.95;1.50;;;;;;;18.53;66.01;97158.69;5061912;28;20056;-46
2023/07/31 07:53:10;;;;;;;5.15;1.45;;;;;;;18.60;66.52;97163.75;5063481;28;20496;-43
2023/07/31 07:55:36;;;;;;;4.25;1.30;;;;;;;18.48;65.29;97163.47;5061392;28;20040;-43
2023/07/31 07:58:03;;;;;;;4.30;2.05;;;;;;;18.66;66.07;97164.44;5061208;28;20091;-44
2023/07/31 08:00:29;;;;;;;5.68;1.80;;;;;;;18.66;65.28;97169.91;5062120;28;20044;-39
2023/07/31 08:02:58;;;;;;;5.22;1.55;;;;;;;18.74;64.51;97166.44;5062088;28;20108;-40
2023/07/31 08:05:25;;;;;;;8.30;1.60;;;;;;;18.89;64.18;97159.78;5060696;28;20040;-42
2023/07/31 08:07:51;;;;;;;8.90;1.75;;;;;;;19.20;63.96;97156.28;5061890;28;20776;-39
2023/07/31 08:10:18;;;;;;;4.47;1.58;;;;;;;19.00;62.75;97149.34;5062259;28;20653;-56
2023/07/31 08:12:44;;;;;;;9.88;1.88;;;;;;;18.81;63.63;97150.38;5061259;28;20062;-56
2023/07/31 08:15:11;;;;;;;14.32;3.38;;;;;;;18.91;63.77;97137.53;5059204;28;20503;-56
2023/07/31 08:17:37;;;;;;;6.05;2.10;;;;;;;18.89;65.44;97150.72;5060920;28;20048;-56
2023/07/31 08:20:05;;;;;;;5.90;1.60;;;;;;;19.19;63.20;97151.09;5065360;28;20053;-56
2023/07/31 08:22:31;;;;;;;5.68;1.75;;;;;;;19.13;63.03;97153.19;5061645;28;20124;-57
2023/07/31 08:24:58;;;;;;;4.28;1.80;;;;;;;19.27;64.03;97147.59;5061353;28;20047;-56
2023/07/31 08:27:24;;;;;;;5.35;1.55;;;;;;;18.98;63.18;97143.34;5061183;28;20052;-57
2023/07/31 08:29:52;;;;;;;6.07;2.08;;;;;;;18.68;62.96;97149.28;5061764;28;20051;-56
2023/07/31 08:32:18;;;;;;;5.85;1.83;;;;;;;18.79;63.79;97146.31;5061852;28;20041;-56
2023/07/31 08:34:45;;;;;;;5.30;1.73;;;;;;;18.91;63.12;97151.22;5059838;28;20040;-56
2023/07/31 08:37:12;;;;;;;6.35;1.73;;;;;;;18.89;63.37;97139.75;5061173;28;20072;-55
2023/07/31 08:39:39;;;;;;;5.53;1.65;;;;;;;18.88;63.31;97143.63;5061379;28;20051;-56
2023/07/31 08:42:09;;;;;;;7.28;1.80;;;;;;;18.99;62.75;97145.00;5060077;28;20048;-56
2023/07/31 08:44:36;;;;;;;5.68;1.77;;;;;;;18.93;63.48;97138.00;5060625;28;20041;-56
2023/07/31 08:47:03;;;;;;;7.40;1.40;;;;;;;18.71;63.44;97139.63;5058177;28;20044;-56
2023/07/31 08:49:31;;;;;;;7.13;2.00;;;;;;;18.80;63.26;97143.25;5061706;28;20051;-54
2023/07/31 08:51:58;;;;;;;7.25;2.22;;;;;;;18.84;64.92;97144.25;5061152;28;20047;-54
2023/07/31 08:54:29;;;;;;;8.48;2.08;;;;;;;18.80;63.37;97143.25;5060770;28;20041;-54
2023/07/31 08:56:57;;;;;;;5.57;1.60;;;;;;;18.96;63.53;97138.22;5060660;28;20050;-54
2023/07/31 08:59:24;;;;;;;4.80;1.45;;;;;;;18.76;63.86;97127.75;5060994;28;20044;-57
2023/07/31 09:01:55;;;;;;;4.00;1.50;;;;;;;18.95;64.23;97116.56;5060605;28;20048;-56
2023/07/31 09:04:22;;;;;;;6.10;1.88;;;;;;;18.98;62.91;97108.50;5060939;28;20036;-57
2023/07/31 09:06:51;;;;;;;4.82;1.40;;;;;;;19.03;63.35;97112.25;5061667;28;20046;-56
2023/07/31 09:09:19;;;;;;;4.28;1.73;;;;;;;19.16;63.17;97116.06;5060851;28;20037;-56
2023/07/31 09:11:46;;;;;;;5.85;1.92;;;;;;;19.11;62.86;97122.50;5059521;28;20526;-56
2023/07/31 09:14:15;;;;;;;5.00;1.63;;;;;;;19.07;62.08;97122.31;5061254;28;20479;-56
2023/07/31 09:16:58;;;;;;;7.38;1.90;;;;;;;19.05;62.27;97121.00;5060381;28;20076;-55
2023/07/31 09:19:29;;;;;;;7.90;1.85;;;;;;;19.07;62.29;97110.53;5060633;28;20105;-56
2023/07/31 09:21:56;;;;;;;7.43;2.25;;;;;;;19.25;62.58;97111.44;5060376;28;20503;-57
2023/07/31 09:24:31;;;;;;;7.35;1.83;;;;;;;19.35;62.84;97119.38;5060946;28;20060;-57
2023/07/31 09:26:59;;;;;;;5.68;1.70;;;;;;;19.33;61.54;97118.91;5059135;28;20120;-57
2023/07/31 09:29:27;;;;;;;5.30;1.70;;;;;;;19.44;62.24;97113.94;5060281;28;20048;-56
2023/07/31 09:31:54;;;;;;;4.82;1.52;;;;;;;19.70;61.54;97113.22;5055488;28;20084;-57
2023/07/31 09:34:30;;;;;;;8.77;1.98;;;;;;;19.68;61.95;97098.97;5060197;28;20127;-56
2023/07/31 09:37:01;;;;;;;5.53;1.95;;;;;;;19.73;61.35;97098.03;5060277;28;20064;-57
2023/07/31 09:39:29;;;;;;;6.35;2.53;;;;;;;19.94;62.32;97095.47;5058424;28;20048;-56
2023/07/31 09:41:56;;;;;;;5.95;1.98;;;;;;;20.16;60.96;97087.47;5061744;28;20044;-57
2023/07/31 09:44:41;;;;;;;6.90;2.42;;;;;;;20.33;59.65;97084.72;5060009;28;20554;-56
2023/07/31 09:47:30;;;;;;;5.47;1.70;;;;;;;20.35;59.13;97067.91;5059743;28;20763;-57
2023/07/31 09:49:57;;;;;;;5.90;1.70;;;;;;;20.41;59.11;97074.84;5047159;28;20144;-56
2023/07/31 09:52:26;;;;;;;5.18;2.05;;;;;;;20.78;56.80;97077.22;5053705;28;20036;-56
2023/07/31 09:54:53;;;;;;;6.68;2.10;;;;;;;20.49;55.55;97076.00;5063167;28;20067;-55
2023/07/31 09:57:21;;;;;;;5.75;1.88;;;;;;;20.60;55.99;97076.47;5065583;28;20045;-56
2023/07/31 09:59:49;;;;;;;3.85;1.73;;;;;;;20.61;55.83;97072.59;5064773;28;20052;-56
2023/07/31 10:02:21;;;;;;;4.57;1.67;;;;;;;20.44;55.29;97065.97;5061668;28;20098;-57
2023/07/31 10:04:50;;;;;;;4.40;1.60;;;;;;;20.69;54.22;97076.44;5063570;28;20200;-56
2023/07/31 10:07:18;;;;;;;8.18;1.80;;;;;;;20.83;53.91;97057.00;5061732;28;20619;-56
2023/07/31 10:09:45;;;;;;;5.50;1.85;;;;;;;20.92;54.98;97055.88;5063133;28;20655;-56
2023/07/31 10:12:16;;;;;;;5.47;1.90;;;;;;;21.34;55.58;97068.19;5064469;28;20040;-57
2023/07/31 10:14:43;;;;;;;4.70;1.95;;;;;;;21.37;54.29;97070.28;5063380;28;20056;-57
2023/07/31 10:17:11;;;;;;;5.82;1.73;;;;;;;21.33;54.10;97058.31;5064668;28;20052;-57
2023/07/31 10:19:38;;;;;;;5.68;1.83;;;;;;;21.40;52.90;97046.78;5063922;28;20450;-56
2023/07/31 10:22:06;;;;;;;6.97;2.70;;;;;;;21.22;53.53;97040.56;5064249;28;20875;-57
2023/07/31 10:24:33;;;;;;;9.00;2.83;;;;;;;21.32;54.07;97040.19;5064336;28;20116;-57
2023/07/31 10:27:02;;;;;;;4.45;1.75;;;;;;;21.20;53.85;97037.31;5063693;28;20049;-56
2023/07/31 10:29:29;;;;;;;6.32;1.98;;;;;;;21.37;54.40;97031.72;5063793;28;20051;-57
2023/07/31 10:31:57;;;;;;;4.32;1.50;;;;;;;21.42;53.40;97034.28;5062844;28;20052;-57
2023/07/31 10:34:25;;;;;;;6.70;2.85;;;;;;;21.67;52.48;97036.44;5063146;28;20059;-57
2023/07/31 10:37:29;;;;;;;5.15;2.03;;;;;;;21.64;52.92;97035.16;5063680;28;20145;-57
2023/07/31 10:40:01;;;;;;;5.18;1.90;;;;;;;22.01;51.85;97023.59;5063204;28;20132;-57
2023/07/31 10:42:29;;;;;;;6.38;2.05;;;;;;;22.27;52.10;97036.38;5063465;28;20033;-55
2023/07/31 10:45:07;;;;;;;7.53;1.95;;;;;;;22.45;52.03;97039.75;5062429;28;20037;-56
2023/07/31 10:48:00;;;;;;;5.18;1.85;;;;;;;22.83;50.20;97034.38;5063630;28;20040;-55
2023/07/31 10:50:29;;;;;;;5.57;1.98;;;;;;;22.82;48.63;97039.09;5062241;28;20075;-56
2023/07/31 10:53:00;;;;;;;5.50;1.80;;;;;;;22.29;49.34;97039.56;5062751;28;20973;-56
2023/07/31 10:55:30;;;;;;;;;;;;;;;22.12;50.03;97032.28;5063519;28;20772;-56
2023/07/31 10:58:04;;;;;;;4.50;1.95;;;;;;;22.29;49.88;97028.53;5052585;28;19935;-56
2023/07/31 11:00:31;;;;;;;7.32;1.90;;;;;;;22.28;50.59;97024.19;5036693;28;20218;-57
2023/07/31 11:03:02;;;;;;;4.97;1.60;;;;;;;22.34;51.03;97022.03;5062709;28;20052;-57
2023/07/31 11:05:50;;;;;;;5.32;2.20;;;;;;;22.81;50.81;97020.13;5052454;28;20036;-57
2023/07/31 11:08:27;;;;;;;5.50;1.92;;;;;;;22.91;50.57;97032.66;5031408;28;20052;-57
2023/07/31 11:11:03;;;;;;;6.82;2.33;;;;;;;22.40;49.80;97017.13;5061868;28;20036;-57
2023/07/31 11:13:34;;;;;;;5.45;1.52;;;;;;;22.68;50.77;97020.09;5063319;28;20055;-57
2023/07/31 11:16:00;;;;;;;6.00;2.38;;;;;;;22.31;49.08;97023.50;5061780;28;20040;-56
2023/07/31 11:18:27;;;;;;;6.72;2.42;;;;;;;22.36;50.78;97025.25;5063147;28;20041;-57
2023/07/31 11:20:54;;;;;;;5.20;1.58;;;;;;;22.09;50.98;97030.19;5062139;28;20052;-59
2023/07/31 11:23:22;;;;;;;5.20;2.00;;;;;;;21.86;50.87;97036.03;5063079;28;20178;-57
2023/07/31 11:25:50;;;;;;;3.78;1.70;;;;;;;21.98;51.13;97016.00;5062502;28;20041;-56
2023/07/31 11:28:19;;;;;;;6.93;1.92;;;;;;;21.61;50.70;97010.22;5063389;28;20044;-57
2023/07/31 11:30:46;;;;;;;7.13;2.30;;;;;;;21.75;51.00;97018.28;5061343;28;20389;-57
2023/07/31 11:33:13;;;;;;;7.38;2.00;;;;;;;21.79;51.21;97010.94;5060104;28;20044;-57
2023/07/31 11:35:46;;;;;;;6.03;1.95;;;;;;;22.07;50.86;97015.91;5061466;28;20041;-56
2023/07/31 11:38:46;;;;;;;5.07;2.10;;;;;;;21.88;51.18;97013.63;5061241;28;20032;-57